createdAt,value
2022-09-07T00:00:04.276Z,8.63
2022-09-07T00:02:31.355Z,6.82
2022-09-07T00:04:58.195Z,6.25
2022-09-07T00:07:24.997Z,9.43
2022-09-07T00:09:51.860Z,12.57
2022-09-07T00:12:18.759Z,7.03
2022-09-07T00:14:45.780Z,9.57
2022-09-07T00:17:12.583Z,13.68
2022-09-07T00:19:39.434Z,8.25
2022-09-07T00:22:06.497Z,5.88
2022-09-07T00:24:33.389Z,5.50
2022-09-07T00:27:00.248Z,3.10
2022-09-07T00:29:27.107Z,5.20
2022-09-07T00:31:54.244Z,9.57
2022-09-07T00:34:21.183Z,4.65
2022-09-07T00:36:48.079Z,5.25
2022-09-07T00:39:15.025Z,4.38
2022-09-07T00:41:41.873Z,6.47
2022-09-07T00:44:56.664Z,6.00
2022-09-07T00:47:35.119Z,5.90
2022-09-07T00:50:19.970Z,5.15
2022-09-07T00:52:49.170Z,6.57
2022-09-07T01:02:08.463Z,17.40
2022-09-07T01:04:38.225Z,4.25
2022-09-07T01:07:08.280Z,4.55
2022-09-07T01:09:55.876Z,6.72
2022-09-07T01:12:22.892Z,10.10
2022-09-07T01:14:53.520Z,3.70
2022-09-07T01:17:38.185Z,3.95
2022-09-07T01:20:25.890Z,10.65
2022-09-07T01:23:28.314Z,7.05
2022-09-07T01:26:32.281Z,3.67
2022-09-07T01:29:24.572Z,3.55
2022-09-07T01:31:57.504Z,4.30
2022-09-07T01:37:06.158Z,3.90
2022-09-07T01:39:51.926Z,6.18
2022-09-07T01:42:21.369Z,3.53
2022-09-07T01:45:36.515Z,5.53
2022-09-07T01:48:40.413Z,5.25
2022-09-07T01:51:08.623Z,8.23
2022-09-07T01:53:45.351Z,4.05
2022-09-07T01:56:45.484Z,11.07
2022-09-07T01:59:55.591Z,3.55
2022-09-07T02:10:17.586Z,6.60
2022-09-07T02:12:48.312Z,3.67
2022-09-07T02:15:18.611Z,4.75
2022-09-07T02:17:49.956Z,4.60
2022-09-07T02:20:26.556Z,3.85
2022-09-07T02:22:58.568Z,5.38
2022-09-07T02:25:30.692Z,4.43
2022-09-07T02:28:03.960Z,7.00
2022-09-07T02:30:30.833Z,4.45
2022-09-07T02:32:58.576Z,2.83
2022-09-07T02:35:25.357Z,4.55
2022-09-07T02:37:52.870Z,5.68
2022-09-07T02:40:19.758Z,7.55
2022-09-07T02:42:47.774Z,8.65
2022-09-07T02:45:16.402Z,6.30
2022-09-07T02:48:01.195Z,4.45
2022-09-07T02:50:36.721Z,7.45
2022-09-07T02:53:41.382Z,3.70
2022-09-07T02:56:24.770Z,3.60
2022-09-07T02:58:54.556Z,2.90
2022-09-07T03:01:57.316Z,3.83
2022-09-07T03:04:55.158Z,6.83
2022-09-07T03:07:30.404Z,8.38
2022-09-07T03:09:58.042Z,6.13
2022-09-07T03:12:26.356Z,3.25
2022-09-07T03:14:53.603Z,3.28
2022-09-07T03:17:20.456Z,2.95
2022-09-07T03:19:47.294Z,4.10
2022-09-07T03:22:14.112Z,7.38
2022-09-07T03:24:40.980Z,3.72
2022-09-07T03:27:08.637Z,5.78
2022-09-07T03:29:39.115Z,4.95
2022-09-07T03:32:08.132Z,5.57
2022-09-07T03:34:35.606Z,3.92
2022-09-07T03:37:02.975Z,9.07
2022-09-07T03:39:30.786Z,8.00
2022-09-07T03:41:57.628Z,7.03
2022-09-07T03:44:24.451Z,5.82
2022-09-07T03:46:51.315Z,5.75
2022-09-07T03:49:18.287Z,6.30
2022-09-07T03:51:45.135Z,6.50
2022-09-07T03:54:11.913Z,3.08
2022-09-07T03:56:38.770Z,7.90
2022-09-07T03:59:05.595Z,6.50
2022-09-07T04:01:32.441Z,5.28
2022-09-07T04:04:02.814Z,9.20
2022-09-07T04:06:30.526Z,6.63
2022-09-07T04:08:57.523Z,6.40
2022-09-07T04:11:24.458Z,3.75
2022-09-07T04:13:51.229Z,4.45
2022-09-07T04:16:21.149Z,2.75
2022-09-07T04:18:50.418Z,3.10
2022-09-07T04:21:18.478Z,4.18
2022-09-07T04:23:47.071Z,2.72
2022-09-07T04:26:23.393Z,7.03
2022-09-07T04:28:51.096Z,3.13
2022-09-07T04:31:19.383Z,5.25
2022-09-07T04:33:47.730Z,5.10
2022-09-07T04:36:15.441Z,5.78
2022-09-07T04:38:42.393Z,7.80
2022-09-07T04:41:19.761Z,4.82
2022-09-07T04:43:47.160Z,5.75
2022-09-07T04:46:25.355Z,2.90
2022-09-07T04:48:54.169Z,8.82
2022-09-07T04:51:22.748Z,4.47
2022-09-07T04:53:51.068Z,8.63
2022-09-07T04:56:18.755Z,4.40
2022-09-07T04:58:47.113Z,4.75
2022-09-07T05:01:19.099Z,1.90
2022-09-07T05:03:47.086Z,5.13
2022-09-07T05:06:17.327Z,3.33
2022-09-07T05:08:47.396Z,5.55
2022-09-07T05:11:14.980Z,5.15
2022-09-07T05:13:42.068Z,6.78
2022-09-07T05:16:14.278Z,5.30
2022-09-07T05:18:43.715Z,5.32
2022-09-07T05:21:17.409Z,2.45
2022-09-07T05:23:45.553Z,3.85
2022-09-07T05:26:12.644Z,4.97
2022-09-07T05:28:40.054Z,2.42
2022-09-07T05:31:19.642Z,5.22
2022-09-07T05:36:37.496Z,11.35
2022-09-07T05:39:08.835Z,6.93
2022-09-07T05:41:35.761Z,4.63
2022-09-07T05:46:53.663Z,8.27
2022-09-07T05:49:21.654Z,3.22
2022-09-07T05:51:49.759Z,2.65
2022-09-07T05:54:16.536Z,2.72
2022-09-07T05:56:43.868Z,3.30
2022-09-07T05:59:10.857Z,3.60
2022-09-07T06:01:37.934Z,2.90
2022-09-07T06:04:04.788Z,3.75
2022-09-07T06:06:31.674Z,3.83
2022-09-07T06:09:00.076Z,6.20
2022-09-07T06:11:27.394Z,7.50
2022-09-07T06:13:54.774Z,4.03
2022-09-07T06:16:22.009Z,2.13
2022-09-07T06:18:50.445Z,3.40
2022-09-07T06:21:22.316Z,2.08
2022-09-07T06:23:49.942Z,2.03
2022-09-07T06:26:18.883Z,2.88
2022-09-07T06:28:49.652Z,5.05
2022-09-07T06:31:19.623Z,5.60
2022-09-07T06:33:47.804Z,2.08
2022-09-07T06:36:19.101Z,1.30
2022-09-07T06:38:47.075Z,2.47
2022-09-07T06:44:06.791Z,3.90
2022-09-07T06:49:20.527Z,3.65
2022-09-07T06:51:47.676Z,5.45
2022-09-07T06:57:09.087Z,3.75
2022-09-07T06:59:37.054Z,2.22
2022-09-07T07:02:05.199Z,4.38
2022-09-07T07:04:37.753Z,8.45
2022-09-07T07:07:10.778Z,4.60
2022-09-07T07:09:38.287Z,5.97
2022-09-07T07:12:07.017Z,10.40
2022-09-07T07:14:36.480Z,2.47
2022-09-07T07:17:05.533Z,3.45
2022-09-07T07:19:32.416Z,3.95
2022-09-07T07:22:14.498Z,1.77
2022-09-07T07:24:48.499Z,4.43
2022-09-07T07:27:15.442Z,3.08
2022-09-07T07:29:42.324Z,3.42
2022-09-07T07:32:09.299Z,9.60
2022-09-07T07:34:36.160Z,6.32
2022-09-07T07:37:03.003Z,2.00
2022-09-07T07:42:16.827Z,5.25
2022-09-07T07:44:43.839Z,3.83
2022-09-07T07:47:10.608Z,4.50
2022-09-07T07:49:37.350Z,5.13
2022-09-07T07:54:53.058Z,4.10
2022-09-07T07:57:20.132Z,3.45
2022-09-07T07:59:47.091Z,3.45
2022-09-07T08:02:16.098Z,4.57
2022-09-07T08:04:43.190Z,4.88
2022-09-07T08:07:12.092Z,5.15
2022-09-07T08:09:46.128Z,3.38
2022-09-07T08:12:17.993Z,7.88
2022-09-07T08:14:45.072Z,3.33
2022-09-07T08:17:13.819Z,5.15
2022-09-07T08:19:41.385Z,5.88
2022-09-07T08:22:09.318Z,2.88
2022-09-07T08:24:36.128Z,4.78
2022-09-07T08:27:03.307Z,4.60
2022-09-07T08:29:34.647Z,3.03
2022-09-07T08:32:04.000Z,3.30
2022-09-07T08:34:30.931Z,3.08
2022-09-07T08:36:57.734Z,4.80
2022-09-07T08:39:24.528Z,1.67
2022-09-07T08:42:11.537Z,1.83
2022-09-07T08:44:48.981Z,2.03
2022-09-07T08:47:25.734Z,4.70
2022-09-07T08:49:52.757Z,6.05
2022-09-07T08:52:22.122Z,1.52
2022-09-07T08:55:18.726Z,3.40
2022-09-07T08:58:32.606Z,4.60
2022-09-07T09:06:11.038Z,2.55
2022-09-07T09:07:19.895Z,3.88
2022-09-07T09:10:05.628Z,4.60
2022-09-07T09:12:57.718Z,4.30
2022-09-07T09:15:42.872Z,2.72
2022-09-07T09:18:31.591Z,2.45
2022-09-07T09:20:59.597Z,3.40
2022-09-07T09:23:28.756Z,2.78
2022-09-07T09:26:00.534Z,5.55
2022-09-07T09:28:30.253Z,2.58
2022-09-07T09:30:59.336Z,5.47
2022-09-07T09:33:28.636Z,4.43
2022-09-07T09:35:57.911Z,3.13
2022-09-07T09:38:40.503Z,1.98
2022-09-07T09:41:08.539Z,3.47
2022-09-07T09:43:52.379Z,3.08
2022-09-07T09:46:33.757Z,3.42
2022-09-07T09:49:02.904Z,1.50
2022-09-07T09:54:36.243Z,2.83
2022-09-07T09:57:03.903Z,2.05
2022-09-07T10:05:44.838Z,3.03
2022-09-07T10:08:31.367Z,2.35
2022-09-07T10:11:07.894Z,4.63
2022-09-07T10:13:46.873Z,4.57
2022-09-07T10:16:15.076Z,3.55
2022-09-07T10:18:55.276Z,4.75
2022-09-07T10:21:29.919Z,2.78
2022-09-07T10:24:00.961Z,3.88
2022-09-07T10:26:31.996Z,2.63
2022-09-07T10:29:19.883Z,3.20
2022-09-07T10:31:55.531Z,7.25
2022-09-07T10:34:26.244Z,5.22
2022-09-07T10:37:03.033Z,2.17
2022-09-07T10:39:44.002Z,4.75
2022-09-07T10:42:29.628Z,4.53
2022-09-07T10:45:14.722Z,4.15
2022-09-07T10:48:02.317Z,2.97
2022-09-07T10:50:39.646Z,2.17
2022-09-07T10:53:40.101Z,1.90
2022-09-07T10:56:07.203Z,8.13
2022-09-07T11:02:05.238Z,2.15
2022-09-07T11:04:44.569Z,6.28
2022-09-07T11:07:17.027Z,1.50
2022-09-07T11:10:01.582Z,4.07
2022-09-07T11:12:38.675Z,2.30
2022-09-07T11:15:11.654Z,1.67
2022-09-07T11:17:59.209Z,2.13
2022-09-07T11:20:32.901Z,2.50
2022-09-07T11:23:05.084Z,5.07
2022-09-07T11:25:35.784Z,5.60
2022-09-07T11:28:15.120Z,3.65
2022-09-07T11:30:47.015Z,4.03
2022-09-07T11:33:22.132Z,3.80
2022-09-07T11:35:53.638Z,1.85
2022-09-07T11:38:36.860Z,7.40
2022-09-07T11:41:19.715Z,2.80
2022-09-07T11:44:09.857Z,1.30
2022-09-07T11:46:53.632Z,2.22
2022-09-07T11:49:25.879Z,1.70
2022-09-07T11:52:12.840Z,1.42
2022-09-07T11:54:52.777Z,3.53
2022-09-07T11:57:38.576Z,5.05
2022-09-07T12:00:18.075Z,2.60
2022-09-07T12:03:05.861Z,2.35
2022-09-07T12:05:49.919Z,1.13
2022-09-07T12:08:19.689Z,1.52
2022-09-07T12:11:19.019Z,4.43
2022-09-07T12:14:12.324Z,5.25
2022-09-07T12:17:25.382Z,3.55
2022-09-07T12:20:10.404Z,2.28
2022-09-07T12:22:37.936Z,2.72
2022-09-07T12:25:11.055Z,3.58
2022-09-07T12:27:47.340Z,2.42
2022-09-07T12:30:14.079Z,3.92
2022-09-07T12:32:58.793Z,5.20
2022-09-07T12:35:29.775Z,1.73
2022-09-07T12:38:00.795Z,1.90
2022-09-07T12:40:29.989Z,3.42
2022-09-07T12:43:15.291Z,4.78
2022-09-07T12:45:42.293Z,1.45
2022-09-07T12:48:15.032Z,3.83
2022-09-07T12:51:05.981Z,2.40
2022-09-07T12:54:09.923Z,6.38
2022-09-07T12:57:29.035Z,4.03
2022-09-07T12:59:47.273Z,5.90
2022-09-07T13:02:38.105Z,2.80
2022-09-07T13:05:31.518Z,3.83
2022-09-07T13:08:17.255Z,6.40
2022-09-07T13:10:44.590Z,4.70
2022-09-07T13:16:15.715Z,3.90
2022-09-07T13:18:46.938Z,6.72
2022-09-07T13:21:14.973Z,7.22
2022-09-07T13:23:43.595Z,5.57
2022-09-07T13:26:12.746Z,5.55
2022-09-07T13:28:48.745Z,4.47
2022-09-07T13:31:32.274Z,5.38
2022-09-07T13:33:59.344Z,5.45
2022-09-07T13:36:26.195Z,7.15
2022-09-07T13:38:55.449Z,3.42
2022-09-07T13:41:27.370Z,5.53
2022-09-07T13:44:00.447Z,4.73
2022-09-07T13:46:39.081Z,10.98
2022-09-07T13:49:18.140Z,4.57
2022-09-07T13:52:04.255Z,3.47
2022-09-07T13:54:49.868Z,5.97
2022-09-07T13:58:07.565Z,3.30
2022-09-07T14:00:35.083Z,6.00
2022-09-07T14:03:06.457Z,5.00
2022-09-07T14:05:33.480Z,3.70
2022-09-07T14:08:00.269Z,5.60
2022-09-07T14:10:27.044Z,3.35
2022-09-07T14:13:05.617Z,5.25
2022-09-07T14:15:34.625Z,4.97
2022-09-07T14:18:13.227Z,6.72
2022-09-07T14:20:46.308Z,4.18
2022-09-07T14:23:32.378Z,3.92
2022-09-07T14:26:16.099Z,4.38
2022-09-07T14:28:45.313Z,4.78
2022-09-07T14:31:16.958Z,5.45
2022-09-07T14:34:00.201Z,4.57
2022-09-07T14:36:48.482Z,6.68
2022-09-07T14:39:17.248Z,4.53
2022-09-07T14:41:44.825Z,4.93
2022-09-07T14:44:27.492Z,5.50
2022-09-07T14:46:56.724Z,6.05
2022-09-07T14:49:24.457Z,4.07
2022-09-07T14:51:54.877Z,7.38
2022-09-07T14:54:26.274Z,4.97
2022-09-07T14:57:27.523Z,11.93
2022-09-07T14:59:57.228Z,8.00
2022-09-07T15:02:33.130Z,4.10
2022-09-07T15:05:14.617Z,6.15
2022-09-07T15:07:46.124Z,4.53
2022-09-07T15:10:29.697Z,6.85
2022-09-07T15:13:01.299Z,10.38
2022-09-07T15:15:33.373Z,5.80
2022-09-07T15:18:21.669Z,5.15
2022-09-07T15:20:51.300Z,2.80
2022-09-07T15:23:19.525Z,4.97
2022-09-07T15:25:54.077Z,6.00
2022-09-07T15:34:09.821Z,6.10
2022-09-07T15:36:37.660Z,6.45
2022-09-07T15:39:05.187Z,7.03
2022-09-07T15:41:32.294Z,5.22
2022-09-07T15:43:59.451Z,6.85
2022-09-07T15:46:26.610Z,5.47
2022-09-07T15:48:55.198Z,5.10
2022-09-07T15:54:13.169Z,4.50
2022-09-07T15:56:44.411Z,7.22
2022-09-07T15:59:30.011Z,4.90
2022-09-07T16:01:58.044Z,9.57
2022-09-07T16:04:25.919Z,9.80
2022-09-07T16:06:52.790Z,4.65
2022-09-07T16:09:21.882Z,8.95
2022-09-07T16:11:50.204Z,5.18
2022-09-07T16:14:17.447Z,5.80
2022-09-07T16:19:34.988Z,3.92
2022-09-07T16:22:03.274Z,6.70
2022-09-07T16:24:30.309Z,4.47
2022-09-07T16:26:57.393Z,4.60
2022-09-07T16:29:24.719Z,5.00
2022-09-07T16:34:39.774Z,4.78
2022-09-07T16:37:07.458Z,2.92
2022-09-07T16:39:34.764Z,3.88
2022-09-07T16:42:03.969Z,2.92
2022-09-07T16:44:30.817Z,3.88
2022-09-07T16:46:57.663Z,4.80
2022-09-07T16:49:24.584Z,3.97
2022-09-07T16:51:52.257Z,3.92
2022-09-07T16:54:21.031Z,9.05
2022-09-07T16:56:47.932Z,4.43
2022-09-07T16:59:20.266Z,8.50
2022-09-07T17:01:47.504Z,4.00
2022-09-07T17:04:14.576Z,7.03
2022-09-07T17:06:41.621Z,7.05
2022-09-07T17:09:08.958Z,4.85
2022-09-07T17:11:37.329Z,9.15
2022-09-07T17:14:06.648Z,3.90
2022-09-07T17:16:36.466Z,6.63
2022-09-07T17:21:52.753Z,4.60
2022-09-07T17:24:20.059Z,10.18
2022-09-07T17:26:46.860Z,18.35
2022-09-07T17:29:13.688Z,4.40
2022-09-07T17:34:27.743Z,5.13
2022-09-07T17:36:54.518Z,12.43
2022-09-07T17:39:21.290Z,7.38
2022-09-07T17:41:49.570Z,11.02
2022-09-07T17:44:17.284Z,6.88
2022-09-07T17:46:44.382Z,5.68
2022-09-07T17:49:16.474Z,5.68
2022-09-07T17:51:44.026Z,4.57
2022-09-07T17:54:14.561Z,9.18
2022-09-07T17:56:42.454Z,7.20
2022-09-07T18:01:56.606Z,6.40
2022-09-07T18:04:24.029Z,7.95
2022-09-07T18:06:51.191Z,7.57
2022-09-07T18:09:19.694Z,10.02
2022-09-07T18:11:48.750Z,7.43
2022-09-07T18:14:17.052Z,19.90
2022-09-07T18:16:45.755Z,6.72
2022-09-07T18:19:13.161Z,6.75
2022-09-07T18:21:42.112Z,9.35
2022-09-07T18:24:13.655Z,8.45
2022-09-07T18:26:41.029Z,4.75
2022-09-07T18:29:26.032Z,5.60
2022-09-07T18:31:55.046Z,3.72
2022-09-07T18:34:22.328Z,5.78
2022-09-07T18:36:49.133Z,4.20
2022-09-07T18:39:15.988Z,5.28
2022-09-07T18:41:43.234Z,4.80
2022-09-07T18:46:57.027Z,8.65
2022-09-07T18:49:24.978Z,9.35
2022-09-07T18:54:41.388Z,6.03
2022-09-07T18:57:08.820Z,5.47
2022-09-07T18:59:37.421Z,6.13
2022-09-07T19:02:07.964Z,4.22
2022-09-07T19:07:28.971Z,8.27
2022-09-07T19:09:57.259Z,6.22
2022-09-07T19:12:29.024Z,8.48
2022-09-07T19:14:57.541Z,5.40
2022-09-07T19:17:26.895Z,5.55
2022-09-07T19:19:55.075Z,4.93
2022-09-07T19:22:24.186Z,5.30
2022-09-07T19:24:51.125Z,8.70
2022-09-07T19:27:20.122Z,5.85
2022-09-07T19:29:47.161Z,8.52
2022-09-07T19:32:17.297Z,5.10
2022-09-07T19:34:45.636Z,7.00
2022-09-07T19:37:17.936Z,7.53
2022-09-07T19:39:45.033Z,6.38
2022-09-07T19:42:11.979Z,9.90
2022-09-07T19:44:38.942Z,7.13
2022-09-07T19:47:06.460Z,7.00
2022-09-07T19:49:37.404Z,6.10
2022-09-07T19:52:09.287Z,5.50
2022-09-07T19:54:37.183Z,6.05
2022-09-07T19:57:06.389Z,6.20
2022-09-07T19:59:35.131Z,9.82
2022-09-07T20:02:02.558Z,6.07
2022-09-07T20:04:29.670Z,7.35
2022-09-07T20:06:56.621Z,10.45
2022-09-07T20:09:23.550Z,6.97
2022-09-07T20:11:50.572Z,9.00
2022-09-07T20:14:18.192Z,9.85
2022-09-07T20:16:48.974Z,9.43
2022-09-07T20:19:18.450Z,7.07
2022-09-07T20:21:50.917Z,7.00
2022-09-07T20:24:39.557Z,9.63
2022-09-07T20:27:18.724Z,7.43
2022-09-07T20:29:45.661Z,6.40
2022-09-07T20:32:15.246Z,7.45
2022-09-07T20:34:53.216Z,9.68
2022-09-07T20:37:20.253Z,9.27
2022-09-07T20:39:54.535Z,8.98
2022-09-07T20:42:21.461Z,7.75
2022-09-07T20:45:18.568Z,6.18
2022-09-07T20:47:45.737Z,7.88
2022-09-07T20:50:12.630Z,7.55
2022-09-07T20:52:39.482Z,8.52
2022-09-07T20:55:09.606Z,12.13
2022-09-07T20:57:37.982Z,10.13
2022-09-07T21:00:27.938Z,10.38
2022-09-07T21:02:54.831Z,9.10
2022-09-07T21:05:21.680Z,11.32
2022-09-07T21:07:58.430Z,7.38
2022-09-07T21:10:25.286Z,8.80
2022-09-07T21:13:23.064Z,10.18
2022-09-07T21:15:50.936Z,9.95
2022-09-07T21:18:18.214Z,7.47
2022-09-07T21:21:20.214Z,7.72
2022-09-07T21:23:51.055Z,9.15
2022-09-07T21:26:20.917Z,10.23
2022-09-07T21:28:49.566Z,17.35
2022-09-07T21:31:16.419Z,12.02
2022-09-07T21:33:43.367Z,10.52
2022-09-07T21:36:12.358Z,11.05
2022-09-07T21:38:41.049Z,16.05
2022-09-07T21:41:26.375Z,10.48
2022-09-07T21:43:57.164Z,10.63
2022-09-07T21:46:39.674Z,9.85
2022-09-07T21:49:06.619Z,12.50
2022-09-07T21:51:48.051Z,18.52
2022-09-07T21:54:38.498Z,9.90
2022-09-07T21:57:19.584Z,18.90
2022-09-07T21:59:49.081Z,9.65
2022-09-07T22:02:16.201Z,13.45
2022-09-07T22:05:02.169Z,11.80
2022-09-07T22:07:29.101Z,11.77
2022-09-07T22:10:17.666Z,11.98
2022-09-07T22:12:54.722Z,13.85
2022-09-07T22:15:22.617Z,11.20
2022-09-07T22:18:01.608Z,12.95
2022-09-07T22:20:48.773Z,15.23
2022-09-07T22:26:33.085Z,12.60
2022-09-07T22:29:10.569Z,14.20
2022-09-07T22:31:52.954Z,17.90
2022-09-07T22:34:34.082Z,25.63
2022-09-07T22:37:13.117Z,16.38
2022-09-07T22:39:47.469Z,17.02
2022-09-07T22:42:14.551Z,20.48
2022-09-07T22:44:41.389Z,16.40
2022-09-07T22:47:09.882Z,23.13
2022-09-07T22:49:38.280Z,21.00
2022-09-07T22:52:19.471Z,21.27
2022-09-07T22:55:12.588Z,21.67
2022-09-07T22:57:57.066Z,24.42
2022-09-07T23:00:34.862Z,22.75
2022-09-07T23:03:13.190Z,25.90
2022-09-07T23:05:42.450Z,25.88
2022-09-07T23:08:09.528Z,23.85
2022-09-07T23:10:49.130Z,23.80
2022-09-07T23:16:07.294Z,25.08
2022-09-07T23:18:49.467Z,24.17
2022-09-07T23:21:16.774Z,22.00
2022-09-07T23:23:55.310Z,20.98
2022-09-07T23:26:23.650Z,25.90
2022-09-07T23:28:54.417Z,25.15
2022-09-07T23:31:22.088Z,25.50
2022-09-07T23:33:51.547Z,25.88
2022-09-07T23:36:22.800Z,32.53
2022-09-07T23:38:50.067Z,28.88
2022-09-07T23:41:31.942Z,27.30
2022-09-07T23:44:21.069Z,28.40
2022-09-07T23:46:51.777Z,28.15
2022-09-07T23:49:21.863Z,28.02
2022-09-07T23:54:29.515Z,27.05
2022-09-07T23:57:14.757Z,27.75
2022-09-07T23:59:44.774Z,29.35
